Time;durP1;ratioP1;P1;durP2;ratioP2;P2;SDS_P1;SDS_P2;PMS_P1;PMS_P2;Temp;Humidity;BMP_temperature;BMP_pressure;BME280_temperature;BME280_humidity;BME280_pressure;Samples;Min_cycle;Max_cycle;Signal;HPM_P1;HPM_P2
2023/01/04 00:01:20;;;;;;;1999.90;999.90;;;9.80;99.90;;;;;;5004277;28;20755;-73
2023/01/04 00:03:45;;;;;;;1999.90;999.90;;;10.00;99.90;;;;;;5002978;28;20196;-73
2023/01/04 00:06:14;;;;;;;1999.90;999.90;;;10.20;99.90;;;;;;5005217;28;20422;-72
2023/01/04 00:08:40;;;;;;;1999.90;999.90;;;10.10;99.90;;;;;;5002997;28;20231;-73
2023/01/04 00:11:09;;;;;;;1999.90;999.90;;;10.20;99.90;;;;;;5003905;28;20453;-74
2023/01/04 00:13:35;;;;;;;1999.90;999.90;;;10.00;99.90;;;;;;5003297;28;20465;-73
2023/01/04 00:16:11;;;;;;;1999.90;999.90;;;10.00;99.90;;;;;;5006849;28;20468;-72
2023/01/04 00:18:37;;;;;;;1999.90;999.90;;;9.90;99.90;;;;;;5008415;28;20184;-71
2023/01/04 00:21:18;;;;;;;1999.90;999.90;;;10.00;99.90;;;;;;5006460;28;20406;-73
2023/01/04 00:23:46;;;;;;;1999.90;999.90;;;10.10;99.90;;;;;;5007216;28;20191;-71
2023/01/04 00:26:18;;;;;;;1999.90;999.90;;;10.10;99.90;;;;;;5006169;28;20416;-73
2023/01/04 00:28:44;;;;;;;1999.90;999.90;;;10.10;99.90;;;;;;5008413;28;20510;-73
2023/01/04 00:31:12;;;;;;;1999.90;999.90;;;10.10;99.90;;;;;;5007237;28;21035;-72
2023/01/04 00:33:38;;;;;;;1999.90;999.90;;;10.20;99.90;;;;;;5005718;28;20431;-72
2023/01/04 00:36:10;;;;;;;1999.90;999.90;;;10.20;99.90;;;;;;5003560;28;20815;-71
2023/01/04 00:38:36;;;;;;;1999.90;999.90;;;10.20;99.90;;;;;;4992523;28;20474;-71
2023/01/04 00:41:03;;;;;;;1999.90;999.90;;;10.30;99.90;;;;;;4992722;28;20408;-70
2023/01/04 00:43:29;;;;;;;1999.90;999.90;;;10.30;99.90;;;;;;4992494;28;20789;-71
2023/01/04 00:45:55;;;;;;;1999.90;999.90;;;10.30;99.90;;;;;;4992442;28;20419;-70
2023/01/04 00:48:20;;;;;;;1999.90;999.90;;;10.50;99.90;;;;;;4992377;28;20171;-71
2023/01/04 00:50:47;;;;;;;1999.90;999.90;;;10.40;99.90;;;;;;4992480;28;20406;-71
2023/01/04 00:53:14;;;;;;;1999.90;999.90;;;10.40;99.90;;;;;;4992317;28;20210;-70
2023/01/04 00:55:41;;;;;;;1999.90;999.90;;;10.50;99.90;;;;;;4999552;28;20432;-74
2023/01/04 00:58:07;;;;;;;1999.90;999.90;;;10.50;99.90;;;;;;5002659;28;20848;-73
2023/01/04 01:00:33;;;;;;;1999.90;999.90;;;10.50;99.90;;;;;;5003029;28;20245;-73
2023/01/04 01:02:59;;;;;;;1999.90;999.90;;;10.30;99.90;;;;;;5003259;28;20449;-73
2023/01/04 01:05:25;;;;;;;1999.90;999.90;;;10.50;99.90;;;;;;5004693;28;20417;-74
2023/01/04 01:07:51;;;;;;;1999.90;999.90;;;10.60;99.90;;;;;;5004536;28;20191;-72
2023/01/04 01:10:16;;;;;;;1999.90;999.90;;;10.50;99.90;;;;;;5005169;28;20187;-71
2023/01/04 01:12:42;;;;;;;1999.90;999.90;;;10.60;99.90;;;;;;5006039;28;20209;-72
2023/01/04 01:15:08;;;;;;;1999.90;999.90;;;10.60;99.90;;;;;;5005610;28;20550;-73
2023/01/04 01:17:35;;;;;;;1999.90;999.90;;;10.60;99.90;;;;;;5007382;28;20168;-74
2023/01/04 01:20:00;;;;;;;1999.90;999.90;;;10.60;99.90;;;;;;5006555;28;20492;-71
2023/01/04 01:22:26;;;;;;;1999.90;999.90;;;10.60;99.90;;;;;;5006822;28;20411;-73
2023/01/04 01:24:52;;;;;;;1999.90;999.90;;;10.70;99.90;;;;;;5006986;28;20199;-73
2023/01/04 01:27:17;;;;;;;1999.90;999.90;;;10.70;99.90;;;;;;5007164;28;20211;-73
2023/01/04 01:29:43;;;;;;;1999.90;999.90;;;10.70;99.90;;;;;;5005441;28;20236;-70
2023/01/04 01:32:08;;;;;;;1999.90;999.90;;;10.70;99.90;;;;;;5009882;28;20212;-74
2023/01/04 01:34:34;;;;;;;1999.90;999.90;;;10.60;99.90;;;;;;5010926;28;20192;-73
2023/01/04 01:37:01;;;;;;;1999.90;999.90;;;10.60;99.90;;;;;;5011088;28;20335;-72
2023/01/04 01:39:27;;;;;;;1999.90;999.90;;;10.60;99.90;;;;;;5009740;28;20180;-71
2023/01/04 01:41:53;;;;;;;1999.90;999.90;;;10.60;99.90;;;;;;5008888;28;20447;-72
2023/01/04 01:44:40;;;;;;;1999.90;999.90;;;10.70;99.90;;;;;;5008751;28;20437;-73
2023/01/04 01:47:22;;;;;;;1999.90;999.90;;;10.70;99.90;;;;;;5008096;28;20259;-74
2023/01/04 01:49:50;;;;;;;1999.90;999.90;;;10.70;99.90;;;;;;5006926;28;20458;-71
2023/01/04 01:52:21;;;;;;;1999.90;999.90;;;10.70;99.90;;;;;;5006957;28;20521;-72
2023/01/04 01:54:52;;;;;;;1999.90;999.90;;;10.70;99.90;;;;;;5006503;28;20440;-74
2023/01/04 01:57:24;;;;;;;1999.90;999.90;;;10.70;99.90;;;;;;5006759;28;20424;-72
2023/01/04 01:59:52;;;;;;;1999.90;999.90;;;10.90;99.90;;;;;;5005605;28;20412;-71
2023/01/04 02:02:18;;;;;;;1999.90;999.90;;;10.80;99.90;;;;;;5005074;28;20792;-72
2023/01/04 02:04:46;;;;;;;1999.90;999.90;;;11.00;99.90;;;;;;5006779;28;20431;-72
2023/01/04 02:07:16;;;;;;;1999.90;999.90;;;10.80;99.90;;;;;;5005521;28;20645;-73
2023/01/04 02:09:43;;;;;;;1999.90;999.90;;;10.80;99.90;;;;;;5006786;28;20404;-72
2023/01/04 02:12:13;;;;;;;1999.90;999.90;;;10.90;99.90;;;;;;5006487;28;20490;-74
2023/01/04 02:14:42;;;;;;;1999.90;999.90;;;10.90;99.90;;;;;;5007315;28;20439;-73
2023/01/04 02:17:43;;;;;;;1999.90;999.90;;;10.90;99.90;;;;;;5005701;28;20498;-74
2023/01/04 02:20:35;;;;;;;1999.90;999.90;;;10.90;99.90;;;;;;4966409;29;20432;-74
2023/01/04 02:23:40;;;;;;;1999.90;999.90;;;11.00;99.90;;;;;;5008378;28;20491;-72
2023/01/04 02:26:37;;;;;;;1999.90;999.90;;;10.90;99.90;;;;;;5010089;28;20470;-71
2023/01/04 02:29:25;;;;;;;1999.90;999.90;;;10.90;99.90;;;;;;5007965;28;20500;-72
2023/01/04 02:32:15;;;;;;;1999.90;999.90;;;10.90;99.90;;;;;;5002250;28;20480;-73
2023/01/04 02:34:59;;;;;;;1999.90;999.90;;;10.90;99.90;;;;;;5006634;28;20439;-73
2023/01/04 02:37:54;;;;;;;1999.90;999.90;;;10.80;99.90;;;;;;5007011;28;20543;-73
2023/01/04 02:40:41;;;;;;;1999.90;999.90;;;10.80;99.90;;;;;;5005607;28;20412;-74
2023/01/04 02:46:13;;;;;;;1999.90;999.90;;;10.80;99.90;;;;;;5009315;28;20425;-72
2023/01/04 02:51:28;;;;;;;1999.90;999.90;;;10.80;99.90;;;;;;5007777;28;20521;-74
2023/01/04 02:53:57;;;;;;;1999.90;999.90;;;10.70;99.90;;;;;;5005742;28;20450;-73
2023/01/04 02:56:34;;;;;;;1999.90;999.90;;;10.70;99.90;;;;;;5007206;28;20963;-73
2023/01/04 02:59:08;;;;;;;1999.90;999.90;;;10.70;99.90;;;;;;5007518;28;20499;-74
2023/01/04 03:07:44;;;;;;;1999.90;999.90;;;10.80;99.90;;;;;;5006320;28;20406;-72
2023/01/04 03:10:34;;;;;;;1999.90;999.90;;;10.80;99.90;;;;;;5002985;28;20409;-72
2023/01/04 03:13:15;;;;;;;1999.90;999.90;;;10.90;99.90;;;;;;4997519;28;20452;-73
2023/01/04 03:15:43;;;;;;;1999.90;999.90;;;11.00;99.90;;;;;;4993963;28;20905;-72
2023/01/04 03:18:25;;;;;;;1999.90;999.90;;;11.10;99.90;;;;;;4993799;28;20813;-72
2023/01/04 03:20:54;;;;;;;1999.90;999.90;;;11.10;99.90;;;;;;4993952;28;20396;-71
2023/01/04 03:35:23;;;;;;;1999.90;999.90;;;10.90;99.90;;;;;;4993687;28;20484;-71
2023/01/04 03:43:08;;;;;;;1999.90;999.90;;;11.00;99.90;;;;;;4993478;28;20436;-71
2023/01/04 03:49:19;;;;;;;1999.90;999.90;;;11.10;99.90;;;;;;4993222;28;20443;-71
2023/01/04 03:51:46;;;;;;;1999.90;999.90;;;11.10;99.90;;;;;;4993314;28;20463;-71
2023/01/04 03:54:25;;;;;;;1999.90;999.90;;;11.20;99.90;;;;;;4993073;28;20994;-72
2023/01/04 03:56:52;;;;;;;1999.90;999.90;;;11.20;99.90;;;;;;4993161;28;20408;-73
2023/01/04 03:59:21;;;;;;;1999.90;999.90;;;11.20;99.90;;;;;;4993096;28;20411;-72
2023/01/04 04:01:47;;;;;;;1999.90;999.90;;;11.20;99.90;;;;;;4993243;28;20412;-73
2023/01/04 04:09:41;;;;;;;1999.90;999.90;;;10.90;99.90;;;;;;4992994;28;20459;-73
2023/01/04 04:12:06;;;;;;;1999.90;999.90;;;10.70;99.90;;;;;;4992924;28;20452;-73
2023/01/04 04:14:32;;;;;;;1999.90;999.90;;;10.60;99.90;;;;;;4993023;28;20192;-72
2023/01/04 04:16:57;;;;;;;1999.90;999.90;;;10.60;99.90;;;;;;4992860;28;20541;-73
2023/01/04 04:19:23;;;;;;;1999.90;999.90;;;10.60;99.90;;;;;;4992794;28;20218;-73
2023/01/04 04:21:48;;;;;;;1999.90;999.90;;;10.60;99.90;;;;;;4992967;28;20168;-72
2023/01/04 04:24:23;;;;;;;1999.90;999.90;;;10.80;99.90;;;;;;4992824;28;20608;-73
2023/01/04 04:26:49;;;;;;;1999.90;999.90;;;10.80;99.90;;;;;;4993158;28;20191;-72
2023/01/04 04:29:15;;;;;;;1999.90;999.90;;;10.70;99.90;;;;;;4992733;28;20439;-74
2023/01/04 04:31:40;;;;;;;1999.90;999.90;;;10.80;99.90;;;;;;4993064;28;20451;-73
2023/01/04 04:34:06;;;;;;;1999.90;999.90;;;10.70;99.90;;;;;;4992890;28;20189;-73
2023/01/04 04:36:32;;;;;;;1999.90;999.90;;;10.80;99.90;;;;;;4992735;28;20235;-73
2023/01/04 04:38:57;;;;;;;1999.90;999.90;;;10.70;99.90;;;;;;4992239;28;20231;-73
2023/01/04 04:44:19;;;;;;;1999.90;999.90;;;10.60;99.90;;;;;;4987778;28;20664;-73
2023/01/04 04:46:47;;;;;;;1999.90;999.90;;;10.70;99.90;;;;;;4992551;28;20402;-73
2023/01/04 04:49:14;;;;;;;1999.90;999.90;;;10.90;99.90;;;;;;4992418;28;20497;-72
2023/01/04 04:51:40;;;;;;;1999.90;999.90;;;10.70;99.90;;;;;;4992603;28;21156;-73
2023/01/04 04:54:07;;;;;;;1999.90;999.90;;;10.70;99.90;;;;;;4992389;28;20440;-73
2023/01/04 04:56:35;;;;;;;1999.90;999.90;;;10.90;1.00;;;;;;4992443;28;20408;-73
2023/01/04 04:59:04;;;;;;;1999.90;999.90;;;10.90;1.00;;;;;;4992363;28;20409;-73
2023/01/04 05:01:30;;;;;;;1999.90;999.90;;;10.90;1.00;;;;;;4992496;28;20503;-73
2023/01/04 05:03:56;;;;;;;1999.90;999.90;;;11.10;1.00;;;;;;4992412;28;20452;-72
2023/01/04 05:06:21;;;;;;;1999.90;999.90;;;11.00;1.00;;;;;;4992469;28;20532;-73
2023/01/04 05:08:47;;;;;;;1999.90;999.90;;;11.10;1.00;;;;;;4992231;28;20452;-73
2023/01/04 05:11:13;;;;;;;1999.90;999.90;;;11.20;1.00;;;;;;4992282;28;20277;-73
2023/01/04 05:13:39;;;;;;;1999.90;999.90;;;11.20;1.00;;;;;;4992309;28;20193;-72
2023/01/04 05:16:06;;;;;;;1999.90;999.90;;;11.20;1.00;;;;;;4992241;28;20400;-73
2023/01/04 05:18:32;;;;;;;1999.90;999.90;;;11.20;1.00;;;;;;4992139;28;20830;-73
2023/01/04 05:20:58;;;;;;;1999.90;999.90;;;11.30;1.00;;;;;;4992285;28;20408;-73
2023/01/04 05:23:23;;;;;;;1999.90;999.90;;;11.30;1.00;;;;;;4992152;28;20436;-73
2023/01/04 05:25:55;;;;;;;1999.90;999.90;;;11.30;1.00;;;;;;4992203;28;20749;-73
2023/01/04 05:28:21;;;;;;;1999.90;999.90;;;11.30;1.00;;;;;;4992106;28;20174;-73
2023/01/04 05:30:52;;;;;;;1999.90;999.90;;;11.40;1.00;;;;;;4992235;28;20421;-73
2023/01/04 05:33:30;;;;;;;1999.90;999.90;;;11.40;1.00;;;;;;4992028;28;20225;-72
2023/01/04 05:35:58;;;;;;;1999.90;999.90;;;11.40;1.00;;;;;;4992242;28;20397;-72
2023/01/04 05:38:24;;;;;;;1999.90;999.90;;;11.30;1.00;;;;;;4991905;28;20408;-73
2023/01/04 05:40:50;;;;;;;1999.90;999.90;;;11.40;1.00;;;;;;4992190;28;20405;-73
2023/01/04 05:43:18;;;;;;;1999.90;999.90;;;11.40;1.00;;;;;;4992100;28;20536;-73
2023/01/04 05:45:46;;;;;;;1999.90;999.90;;;11.40;1.00;;;;;;4991944;28;20416;-72
2023/01/04 05:48:12;;;;;;;1999.90;999.90;;;11.40;1.00;;;;;;4991969;28;20471;-72
2023/01/04 05:50:38;;;;;;;1999.90;999.90;;;11.50;1.00;;;;;;4991980;28;20425;-73
2023/01/04 05:53:05;;;;;;;1999.90;999.90;;;11.40;1.00;;;;;;4994813;28;20239;-73
2023/01/04 05:55:31;;;;;;;1999.90;999.90;;;11.50;1.00;;;;;;4995531;28;20181;-73
2023/01/04 05:57:56;;;;;;;1999.90;999.90;;;11.60;1.00;;;;;;4995217;28;20397;-73
2023/01/04 06:00:22;;;;;;;1999.90;999.90;;;11.50;1.00;;;;;;4995343;28;20960;-73
2023/01/04 06:02:47;;;;;;;1999.90;999.90;;;11.60;1.00;;;;;;4995315;28;20227;-73
2023/01/04 06:05:13;;;;;;;1999.90;999.90;;;11.60;1.00;;;;;;4995511;28;20640;-72
2023/01/04 06:07:39;;;;;;;1999.90;999.90;;;11.70;1.00;;;;;;4995217;28;20179;-72
2023/01/04 06:10:07;;;;;;;1999.90;999.90;;;11.70;1.00;;;;;;4995184;28;20240;-72
2023/01/04 06:12:32;;;;;;;1999.90;999.90;;;11.70;1.00;;;;;;4995157;28;20535;-72
2023/01/04 06:14:58;;;;;;;1999.90;999.90;;;11.80;1.00;;;;;;4995096;28;20449;-72
2023/01/04 06:17:23;;;;;;;1999.90;999.90;;;11.80;1.00;;;;;;4995080;28;20606;-73
2023/01/04 06:19:49;;;;;;;1999.90;999.90;;;11.80;1.00;;;;;;4994988;28;20178;-72
2023/01/04 06:22:15;;;;;;;1999.90;999.90;;;11.90;1.00;;;;;;4995070;28;20174;-73
2023/01/04 06:24:40;;;;;;;1999.90;999.90;;;11.90;1.00;;;;;;4994978;28;20192;-73
2023/01/04 06:27:06;;;;;;;1999.90;999.90;;;11.90;1.00;;;;;;4994900;28;20447;-73
2023/01/04 06:29:32;;;;;;;1999.90;999.90;;;11.90;1.00;;;;;;4994733;28;20199;-73
2023/01/04 06:31:57;;;;;;;1999.90;999.90;;;11.90;1.00;;;;;;4994846;28;20193;-73
2023/01/04 06:34:23;;;;;;;1999.90;999.90;;;12.00;1.00;;;;;;4994813;28;20192;-73
2023/01/04 06:36:48;;;;;;;1999.90;999.90;;;12.00;1.00;;;;;;4994735;28;20266;-73
2023/01/04 06:39:14;;;;;;;1999.90;999.90;;;12.00;1.00;;;;;;4994559;28;20171;-73
2023/01/04 06:41:40;;;;;;;1999.90;999.90;;;12.00;1.00;;;;;;4994745;28;20175;-73
2023/01/04 06:44:05;;;;;;;1999.90;999.90;;;12.00;1.00;;;;;;4994615;28;20671;-73
2023/01/04 06:46:31;;;;;;;1999.90;999.90;;;12.10;1.00;;;;;;4994579;28;20170;-72
2023/01/04 06:48:57;;;;;;;1999.90;999.90;;;12.10;1.00;;;;;;4994445;28;20889;-73
2023/01/04 06:51:22;;;;;;;1999.90;999.90;;;12.10;1.00;;;;;;4994384;28;20200;-73
2023/01/04 06:53:48;;;;;;;1999.90;999.90;;;12.10;1.00;;;;;;4994372;28;20214;-73
2023/01/04 06:56:14;;;;;;;1999.90;999.90;;;12.20;1.00;;;;;;5000186;28;20174;-73
2023/01/04 06:58:40;;;;;;;1999.90;999.90;;;12.10;1.00;;;;;;5000132;28;20476;-71
2023/01/04 07:01:06;;;;;;;1999.90;999.90;;;12.10;1.00;;;;;;4994360;28;20480;-70
2023/01/04 07:03:31;;;;;;;1999.90;999.90;;;12.10;1.00;;;;;;4994186;28;20529;-71
2023/01/04 07:05:57;;;;;;;1999.90;999.90;;;12.10;1.00;;;;;;4994126;28;20401;-71
2023/01/04 07:08:23;;;;;;;1999.90;999.90;;;12.20;1.00;;;;;;4993992;28;20216;-71
2023/01/04 07:10:49;;;;;;;1999.90;999.90;;;12.10;1.00;;;;;;4994175;28;20173;-71
2023/01/04 07:13:15;;;;;;;1999.90;999.90;;;12.10;1.00;;;;;;4994014;28;20278;-73
2023/01/04 07:15:41;;;;;;;1999.90;999.90;;;12.20;1.00;;;;;;4994232;28;20212;-73
2023/01/04 07:18:08;;;;;;;1999.90;999.90;;;12.10;1.00;;;;;;4993878;28;20817;-72
2023/01/04 07:20:34;;;;;;;1999.90;999.90;;;12.20;1.00;;;;;;4994088;28;20794;-72
2023/01/04 07:23:00;;;;;;;1999.90;999.90;;;12.00;1.00;;;;;;4993883;28;20420;-72
2023/01/04 07:25:25;;;;;;;1999.90;999.90;;;12.20;1.00;;;;;;4994003;28;20440;-72
2023/01/04 07:27:52;;;;;;;1999.90;999.90;;;12.20;1.00;;;;;;4993721;28;20224;-72
2023/01/04 07:30:18;;;;;;;1999.90;999.90;;;12.10;1.00;;;;;;4994070;28;20543;-73
2023/01/04 07:32:44;;;;;;;1999.90;999.90;;;12.10;1.00;;;;;;4993693;28;20449;-72
2023/01/04 07:35:10;;;;;;;1999.90;999.90;;;12.10;1.00;;;;;;4993240;28;20443;-72
2023/01/04 07:37:35;;;;;;;1999.90;999.90;;;12.20;1.00;;;;;;4993545;28;20165;-73
2023/01/04 07:40:01;;;;;;;1999.90;999.90;;;12.20;1.00;;;;;;4993475;28;20166;-73
2023/01/04 07:42:26;;;;;;;1999.90;999.90;;;12.10;1.00;;;;;;4993763;28;20197;-72
2023/01/04 07:44:52;;;;;;;1999.90;999.90;;;12.10;1.00;;;;;;4993561;28;20203;-73
2023/01/04 07:47:17;;;;;;;1999.90;999.90;;;12.10;1.00;;;;;;4993472;28;20166;-72
2023/01/04 07:49:43;;;;;;;1999.90;999.90;;;12.10;1.00;;;;;;4993311;28;20235;-72
2023/01/04 07:52:09;;;;;;;1999.90;999.90;;;12.10;1.00;;;;;;4993500;28;20652;-72
2023/01/04 07:54:35;;;;;;;1999.90;999.90;;;12.10;1.00;;;;;;4993278;28;20292;-73
2023/01/04 07:57:00;;;;;;;1999.90;999.90;;;12.10;1.00;;;;;;4993212;28;20172;-72
2023/01/04 07:59:26;;;;;;;1999.90;999.90;;;12.10;1.00;;;;;;4993087;28;20405;-72
2023/01/04 08:01:51;;;;;;;1999.90;999.90;;;12.00;1.00;;;;;;4993350;28;20245;-72
2023/01/04 08:04:21;;;;;;;1999.90;999.90;;;12.10;1.00;;;;;;4993257;28;20189;-72
2023/01/04 08:06:47;;;;;;;1999.90;999.90;;;12.00;1.00;;;;;;4993254;28;20169;-72
2023/01/04 08:09:13;;;;;;;1999.90;999.90;;;12.10;1.00;;;;;;4993033;28;20883;-72
2023/01/04 08:11:39;;;;;;;1999.90;999.90;;;12.00;1.00;;;;;;4993220;28;20197;-72
2023/01/04 08:14:04;;;;;;;1999.90;999.90;;;12.00;1.00;;;;;;4992636;28;20628;-73
2023/01/04 08:16:32;;;;;;;1999.90;999.90;;;12.00;1.00;;;;;;4992934;28;20414;-72
2023/01/04 08:19:01;;;;;;;1999.90;999.90;;;12.00;1.00;;;;;;4992744;28;20165;-72
2023/01/04 08:21:33;;;;;;;1999.90;999.90;;;12.10;1.00;;;;;;4992974;28;20401;-72
2023/01/04 08:23:59;;;;;;;1999.90;999.90;;;12.10;1.00;;;;;;4992835;28;20504;-73
2023/01/04 08:26:25;;;;;;;1999.90;999.90;;;12.10;1.00;;;;;;4992783;28;20986;-72
2023/01/04 08:28:50;;;;;;;1999.90;999.90;;;12.10;1.00;;;;;;4992758;28;20636;-73
2023/01/04 08:31:18;;;;;;;1999.90;999.90;;;12.20;1.00;;;;;;4992869;28;20173;-73
2023/01/04 08:33:45;;;;;;;1999.90;999.90;;;12.20;1.00;;;;;;4992798;28;20436;-73
2023/01/04 08:36:26;;;;;;;1999.90;999.90;;;12.30;1.00;;;;;;4992749;28;21115;-73
2023/01/04 08:38:55;;;;;;;1999.90;999.90;;;12.30;1.00;;;;;;4992589;28;20439;-73
2023/01/04 08:41:20;;;;;;;1999.90;999.90;;;12.30;1.00;;;;;;4992863;28;20910;-72
2023/01/04 08:43:46;;;;;;;1999.90;999.90;;;12.30;1.00;;;;;;4992744;28;20429;-72
2023/01/04 08:46:13;;;;;;;1999.90;999.90;;;12.40;1.00;;;;;;4992602;28;20632;-72
2023/01/04 08:48:39;;;;;;;1999.90;999.90;;;12.40;1.00;;;;;;4992489;28;20547;-72
2023/01/04 08:51:13;;;;;;;1999.90;999.90;;;12.50;1.00;;;;;;4992579;28;20919;-73
2023/01/04 08:53:39;;;;;;;1999.90;999.90;;;12.50;1.00;;;;;;4992574;28;20444;-72
2023/01/04 08:56:06;;;;;;;1999.90;999.90;;;12.60;1.00;;;;;;4992571;28;20410;-72
2023/01/04 08:58:32;;;;;;;1999.90;999.90;;;12.60;1.00;;;;;;4992363;28;20186;-72
2023/01/04 09:01:06;;;;;;;1999.90;999.90;;;12.60;1.00;;;;;;4988832;28;20499;-73
2023/01/04 09:03:33;;;;;;;1999.90;999.90;;;12.70;1.00;;;;;;4991132;28;20468;-72
2023/01/04 09:06:07;;;;;;;1999.90;999.90;;;12.70;1.00;;;;;;4991099;28;20466;-72
2023/01/04 09:08:33;;;;;;;1999.90;999.90;;;12.80;1.00;;;;;;4991162;28;20440;-73
2023/01/04 09:11:07;;;;;;;1999.90;999.90;;;12.80;1.00;;;;;;4990899;28;20402;-73
2023/01/04 09:13:34;;;;;;;1999.90;999.90;;;12.80;1.00;;;;;;4991426;28;20493;-73
2023/01/04 09:16:05;;;;;;;1999.90;999.90;;;12.80;1.00;;;;;;4991419;28;20758;-73
2023/01/04 09:18:32;;;;;;;1999.90;999.90;;;12.80;1.00;;;;;;4991450;28;20413;-73
2023/01/04 09:20:59;;;;;;;1999.90;999.90;;;12.80;1.00;;;;;;4990911;28;20788;-73
2023/01/04 09:23:25;;;;;;;1999.90;999.90;;;12.80;1.00;;;;;;4991311;28;20437;-72
2023/01/04 09:25:50;;;;;;;1999.90;999.90;;;12.90;1.00;;;;;;4991179;28;20421;-72
2023/01/04 09:28:16;;;;;;;1999.90;999.90;;;12.90;1.00;;;;;;4994889;28;20182;-72
2023/01/04 09:30:41;;;;;;;1999.90;999.90;;;12.90;1.00;;;;;;4995189;28;20178;-73
2023/01/04 09:33:07;;;;;;;1999.90;999.90;;;12.90;1.00;;;;;;4994347;28;20215;-72
2023/01/04 09:35:34;;;;;;;1999.90;999.90;;;12.90;1.00;;;;;;4994952;28;20281;-72
2023/01/04 09:37:59;;;;;;;1999.90;999.90;;;12.90;1.00;;;;;;4994963;28;20184;-72
2023/01/04 09:40:41;;;;;;;1999.90;999.90;;;12.90;1.00;;;;;;4994841;28;20414;-73
2023/01/04 09:43:17;;;;;;;1999.90;999.90;;;12.80;1.00;;;;;;4994502;28;20182;-73
2023/01/04 09:45:44;;;;;;;1999.90;999.90;;;12.90;1.00;;;;;;4994785;28;20482;-72
2023/01/04 09:48:15;;;;;;;1999.90;999.90;;;12.80;1.00;;;;;;4994341;28;20425;-72
2023/01/04 09:50:51;;;;;;;1999.90;999.90;;;12.80;1.00;;;;;;4995862;28;20412;-71
2023/01/04 09:53:22;;;;;;;1999.90;999.90;;;12.80;1.00;;;;;;4995422;28;20472;-71
2023/01/04 09:55:51;;;;;;;1999.90;999.90;;;12.90;1.00;;;;;;4995529;28;20891;-71
2023/01/04 09:58:28;;;;;;;1999.90;999.90;;;12.80;1.00;;;;;;4995485;28;20417;-71
2023/01/04 10:01:05;;;;;;;1999.90;999.90;;;12.90;1.00;;;;;;4995896;28;20892;-71
2023/01/04 10:03:34;;;;;;;1999.90;999.90;;;12.90;1.00;;;;;;4995538;28;20846;-71
2023/01/04 10:06:01;;;;;;;1999.90;999.90;;;12.90;1.00;;;;;;4995238;28;20413;-71
2023/01/04 10:08:26;;;;;;;1999.90;999.90;;;12.90;1.00;;;;;;4995344;28;20877;-71
2023/01/04 10:11:06;;;;;;;1999.90;999.90;;;12.90;1.00;;;;;;4995555;28;20545;-72
2023/01/04 10:14:26;;;;;;;1999.90;999.90;;;12.90;1.00;;;;;;4995744;28;20194;-71
2023/01/04 10:17:14;;;;;;;1999.90;999.90;;;12.80;1.00;;;;;;4973642;28;20422;-71
2023/01/04 10:20:01;;;;;;;1999.90;999.90;;;12.70;1.00;;;;;;4994269;28;20413;-71
2023/01/04 10:22:53;;;;;;;1999.90;999.90;;;12.60;1.00;;;;;;4995472;28;20416;-71
2023/01/04 10:25:37;;;;;;;1999.90;999.90;;;12.50;1.00;;;;;;4995652;28;20424;-71
2023/01/04 10:28:12;;;;;;;1999.90;999.90;;;12.40;1.00;;;;;;4995964;28;20397;-71
2023/01/04 10:30:50;;;;;;;1999.90;999.90;;;12.30;10.30;;;;;;4995830;28;20433;-72
2023/01/04 10:33:31;;;;;;;1999.90;999.90;;;12.20;28.30;;;;;;4995422;28;20563;-71
2023/01/04 10:35:57;;;;;;;1999.90;999.90;;;12.20;40.70;;;;;;4995700;28;20489;-71
2023/01/04 10:38:29;;;;;;;1999.90;999.90;;;12.20;43.80;;;;;;4994730;28;20503;-71
2023/01/04 10:40:58;;;;;;;1999.90;999.90;;;12.10;44.70;;;;;;4995593;28;20413;-71
2023/01/04 10:43:36;;;;;;;1999.90;999.90;;;12.20;40.50;;;;;;4995022;28;20440;-71
2023/01/04 10:46:21;;;;;;;1999.90;999.90;;;12.20;41.80;;;;;;4995120;28;20409;-71
2023/01/04 10:48:56;;;;;;;1999.90;999.90;;;12.30;36.50;;;;;;4994978;28;20491;-72
2023/01/04 10:51:56;;;;;;;1999.90;999.90;;;12.40;36.60;;;;;;4995063;28;20413;-71
2023/01/04 10:54:32;;;;;;;1999.90;999.90;;;12.40;27.60;;;;;;4991204;28;20457;-71
2023/01/04 10:57:07;;;;;;;1999.90;999.90;;;12.40;21.90;;;;;;4995440;28;20408;-71
2023/01/04 10:59:51;;;;;;;1999.90;999.90;;;12.50;14.60;;;;;;4995483;28;20410;-71
2023/01/04 11:02:32;;;;;;;1999.90;999.90;;;12.60;10.30;;;;;;4995287;28;20887;-71
2023/01/04 11:05:14;;;;;;;1999.90;999.90;;;12.60;2.40;;;;;;4994693;28;20434;-71
2023/01/04 11:08:08;;;;;;;1999.90;999.90;;;12.60;8.60;;;;;;4994750;28;20411;-71
2023/01/04 11:10:41;;;;;;;1999.90;999.90;;;12.60;11.40;;;;;;4994866;28;20434;-71
2023/01/04 11:13:07;;;;;;;1999.90;999.90;;;12.60;23.20;;;;;;4995365;28;20489;-71
2023/01/04 11:15:34;;;;;;;1999.90;999.90;;;12.70;8.90;;;;;;4994888;28;20876;-71
2023/01/04 11:18:03;;;;;;;1999.90;999.90;;;12.80;1.00;;;;;;4994356;28;20237;-71
2023/01/04 11:20:30;;;;;;;1999.90;999.90;;;12.80;1.00;;;;;;4994939;28;20413;-71
2023/01/04 11:23:00;;;;;;;1999.90;999.90;;;12.90;1.00;;;;;;4994490;28;20421;-71
2023/01/04 11:25:27;;;;;;;1999.90;999.90;;;12.90;1.00;;;;;;4994629;28;20513;-71
2023/01/04 11:28:21;;;;;;;1999.90;999.90;;;13.00;1.00;;;;;;4993893;28;20485;-71
2023/01/04 11:30:55;;;;;;;1999.90;999.90;;;13.00;1.00;;;;;;4994031;28;20437;-71
2023/01/04 11:33:22;;;;;;;1999.90;999.90;;;13.00;1.00;;;;;;4994016;28;20472;-71
2023/01/04 11:35:50;;;;;;;1999.90;999.90;;;13.00;1.00;;;;;;4999958;28;20417;-72
2023/01/04 11:38:19;;;;;;;1999.90;999.90;;;13.00;1.00;;;;;;5002376;28;20405;-72
2023/01/04 11:41:04;;;;;;;1999.90;999.90;;;12.90;1.00;;;;;;5001699;28;20414;-71
2023/01/04 11:43:35;;;;;;;1999.90;999.90;;;13.00;1.00;;;;;;5000701;28;20468;-71
2023/01/04 11:46:24;;;;;;;1999.90;999.90;;;13.00;1.00;;;;;;5000802;28;20482;-71
2023/01/04 11:48:51;;;;;;;1999.90;999.90;;;13.00;1.00;;;;;;4996722;28;20421;-71
2023/01/04 11:51:24;;;;;;;1999.90;999.90;;;13.00;1.00;;;;;;5001261;28;20418;-72
2023/01/04 11:53:57;;;;;;;1999.90;999.90;;;13.00;1.00;;;;;;5002390;28;20481;-72
2023/01/04 11:56:24;;;;;;;1999.90;999.90;;;13.00;1.00;;;;;;5000397;28;20450;-72
2023/01/04 11:59:04;;;;;;;1999.90;999.90;;;13.00;1.00;;;;;;5000224;28;20501;-71
2023/01/04 12:01:32;;;;;;;1999.90;999.90;;;13.00;1.00;;;;;;5001879;28;20409;-72
2023/01/04 12:03:58;;;;;;;1999.90;999.90;;;13.00;2.50;;;;;;5001091;28;20436;-72
2023/01/04 12:06:46;;;;;;;1999.90;999.90;;;13.00;7.50;;;;;;5001903;28;20414;-72
2023/01/04 12:09:14;;;;;;;1999.90;999.90;;;13.00;9.40;;;;;;5001861;28;20211;-72
2023/01/04 12:11:44;;;;;;;1999.90;999.90;;;13.00;18.10;;;;;;4999499;28;20457;-72
2023/01/04 12:14:21;;;;;;;1999.90;999.90;;;13.00;15.50;;;;;;4998988;28;20848;-72
2023/01/04 12:16:53;;;;;;;1999.90;999.90;;;13.00;18.20;;;;;;5000333;28;20462;-71
2023/01/04 12:19:20;;;;;;;1999.90;999.90;;;13.00;17.70;;;;;;4999745;28;20800;-72
2023/01/04 12:21:53;;;;;;;1999.90;999.90;;;13.00;20.70;;;;;;5000785;28;20417;-71
2023/01/04 12:24:25;;;;;;;1999.90;999.90;;;13.00;20.50;;;;;;5000985;28;20431;-72
2023/01/04 12:26:51;;;;;;;1999.90;999.90;;;13.10;15.60;;;;;;5001178;28;20433;-72
2023/01/04 12:29:43;;;;;;;1999.90;999.90;;;13.10;12.50;;;;;;4999990;28;20777;-72
2023/01/04 12:32:11;;;;;;;1999.90;999.90;;;13.10;10.60;;;;;;5005202;28;20460;-72
2023/01/04 12:34:41;;;;;;;1999.90;999.90;;;13.10;10.80;;;;;;5005953;28;20501;-73
2023/01/04 12:37:08;;;;;;;1999.90;999.90;;;13.10;7.40;;;;;;5004053;28;20408;-72
2023/01/04 12:39:40;;;;;;;1999.90;999.90;;;13.10;3.00;;;;;;5004287;28;20403;-71
2023/01/04 12:42:06;;;;;;;1999.90;999.90;;;13.10;4.20;;;;;;4992527;28;20930;-71
2023/01/04 12:44:37;;;;;;;1999.90;999.90;;;13.10;2.80;;;;;;4992511;28;20440;-70
2023/01/04 12:50:22;;;;;;;1999.90;999.90;;;13.10;10.40;;;;;;4992471;28;20977;-69
2023/01/04 12:52:52;;;;;;;1999.90;999.90;;;13.00;19.00;;;;;;4992335;28;20477;-70
2023/01/04 12:55:18;;;;;;;1999.90;999.90;;;13.00;28.80;;;;;;4997288;28;20418;-72
2023/01/04 12:57:44;;;;;;;1999.90;999.90;;;13.00;29.50;;;;;;5004931;28;20410;-72
2023/01/04 13:00:14;;;;;;;1999.90;999.90;;;13.00;38.70;;;;;;5006048;28;20222;-72
2023/01/04 13:02:49;;;;;;;1999.90;999.90;;;13.00;38.80;;;;;;5004791;28;20426;-72